createdAt,value
2018-07-06T00:02:08.451Z,4.07
2018-07-06T00:04:55.620Z,3.90
2018-07-06T00:07:36.917Z,4.00
2018-07-06T00:10:24.213Z,3.90
2018-07-06T00:13:11.507Z,4.13
2018-07-06T00:15:58.941Z,4.33
2018-07-06T00:18:47.337Z,4.67
2018-07-06T00:21:34.763Z,4.13
2018-07-06T00:24:22.082Z,4.30
2018-07-06T00:27:03.569Z,4.40
2018-07-06T00:29:50.944Z,4.73
2018-07-06T00:32:38.275Z,4.30
2018-07-06T00:51:24.047Z,3.73
2018-07-06T00:54:11.923Z,4.17
2018-07-06T00:56:59.244Z,3.60
2018-07-06T00:59:40.668Z,3.80
2018-07-06T01:02:27.839Z,4.23
2018-07-06T01:05:15.109Z,4.13
2018-07-06T01:08:02.316Z,3.97
2018-07-06T01:10:49.542Z,3.83
2018-07-06T01:13:36.743Z,4.07
2018-07-06T01:16:24.058Z,4.10
2018-07-06T01:19:11.451Z,3.90
2018-07-06T01:21:58.856Z,4.00
2018-07-06T01:24:46.181Z,4.27
2018-07-06T01:27:33.600Z,3.87
2018-07-06T01:30:20.891Z,4.00
2018-07-06T01:33:08.195Z,3.93
2018-07-06T01:35:55.503Z,4.23
2018-07-06T01:38:42.813Z,4.17
2018-07-06T01:41:30.227Z,4.37
2018-07-06T01:44:17.833Z,4.53
2018-07-06T01:47:05.246Z,4.57
2018-07-06T01:49:52.698Z,4.90
2018-07-06T01:52:40.002Z,4.50
2018-07-06T01:55:27.536Z,4.07
2018-07-06T01:58:14.974Z,4.23
2018-07-06T02:01:02.336Z,4.43
2018-07-06T02:03:49.719Z,4.67
2018-07-06T02:06:37.111Z,4.20
2018-07-06T02:09:24.529Z,6.43
2018-07-06T02:12:11.917Z,6.50
2018-07-06T02:14:59.288Z,5.83
2018-07-06T02:17:46.822Z,6.33
2018-07-06T02:20:34.255Z,6.50
2018-07-06T02:23:21.686Z,6.70
2018-07-06T02:26:08.937Z,6.60
2018-07-06T02:28:56.117Z,6.60
2018-07-06T02:31:43.503Z,6.07
2018-07-06T02:34:30.948Z,5.57
2018-07-06T02:37:18.242Z,5.70
2018-07-06T02:40:05.525Z,6.00
2018-07-06T02:42:52.929Z,6.40
2018-07-06T02:45:40.412Z,6.03
2018-07-06T02:48:21.780Z,6.30
2018-07-06T02:51:02.814Z,6.20
2018-07-06T02:53:49.908Z,6.20
2018-07-06T02:56:37.224Z,6.63
2018-07-06T02:59:24.445Z,5.87
2018-07-06T03:02:11.677Z,6.23
2018-07-06T03:04:59.049Z,4.57
2018-07-06T03:07:46.447Z,4.73
2018-07-06T03:10:33.639Z,4.10
2018-07-06T03:13:20.982Z,4.57
2018-07-06T03:16:08.323Z,3.83
2018-07-06T03:18:55.636Z,4.57
2018-07-06T03:21:43.115Z,4.40
2018-07-06T03:24:30.708Z,4.10
2018-07-06T03:27:18.118Z,3.97
2018-07-06T03:30:05.620Z,4.23
2018-07-06T03:32:52.885Z,4.23
2018-07-06T03:35:40.221Z,4.77
2018-07-06T03:38:27.533Z,4.70
2018-07-06T03:41:14.886Z,4.30
2018-07-06T03:44:02.147Z,4.80
2018-07-06T03:46:49.375Z,4.87
2018-07-06T03:49:41.620Z,5.50
2018-07-06T03:52:28.930Z,5.30
2018-07-06T03:55:17.561Z,5.33
2018-07-06T03:58:05.683Z,4.63
2018-07-06T04:00:52.938Z,4.83
2018-07-06T04:03:40.100Z,4.33
2018-07-06T04:06:27.253Z,4.40
2018-07-06T04:09:14.358Z,3.83
2018-07-06T04:12:01.514Z,3.77
2018-07-06T04:14:48.721Z,4.40
2018-07-06T04:17:36.010Z,4.30
2018-07-06T04:20:23.374Z,4.50
2018-07-06T04:23:10.639Z,4.37
2018-07-06T04:25:57.799Z,4.00
2018-07-06T04:28:44.936Z,3.83
2018-07-06T04:31:32.117Z,4.07
2018-07-06T04:34:19.633Z,4.00
2018-07-06T04:37:07.020Z,3.53
2018-07-06T04:39:54.247Z,3.83
2018-07-06T04:42:41.646Z,3.80
2018-07-06T09:36:21.847Z,3.50
2018-07-06T09:38:53.509Z,3.33
2018-07-06T12:10:50.857Z,4.30
2018-07-06T12:13:22.358Z,3.33
2018-07-06T12:15:55.976Z,4.10
2018-07-06T12:18:30.638Z,4.00
2018-07-06T12:21:02.752Z,3.90
2018-07-06T12:26:19.613Z,3.93
2018-07-06T12:28:50.430Z,4.23
2018-07-06T12:31:21.211Z,3.70
2018-07-06T12:33:52.061Z,4.13
2018-07-06T12:36:22.850Z,4.30
2018-07-06T12:38:53.514Z,4.10
2018-07-06T12:41:24.407Z,3.70
2018-07-06T12:43:55.307Z,4.30
2018-07-06T12:46:26.177Z,4.37
2018-07-06T12:48:56.453Z,3.97
2018-07-06T12:51:27.184Z,4.43
2018-07-06T12:53:57.994Z,4.03
2018-07-06T12:56:28.849Z,3.83
2018-07-06T12:58:59.598Z,4.20
2018-07-06T13:01:30.557Z,3.90
2018-07-06T13:04:01.382Z,4.20
2018-07-06T13:06:36.206Z,4.40
2018-07-06T14:32:32.397Z,7.07
2018-07-06T14:35:03.247Z,6.67
2018-07-06T14:37:34.100Z,7.90
2018-07-06T14:40:04.987Z,6.97
2018-07-06T14:42:35.897Z,6.83
2018-07-06T14:45:06.937Z,6.57
2018-07-06T14:47:37.988Z,6.43
2018-07-06T14:50:10.602Z,6.63
2018-07-06T14:52:41.389Z,7.00
2018-07-06T14:55:13.802Z,6.70
2018-07-06T14:57:52.319Z,7.53
2018-07-06T15:00:32.525Z,7.60
2018-07-06T15:03:05.969Z,7.60
2018-07-06T15:05:37.566Z,7.30
2018-07-06T15:08:09.055Z,6.47
2018-07-06T15:10:42.213Z,5.67
2018-07-06T15:13:15.250Z,7.03
2018-07-06T15:15:49.396Z,6.63
2018-07-06T15:18:30.113Z,6.70
2018-07-06T15:21:02.807Z,5.87
2018-07-06T15:23:34.190Z,5.73
2018-07-06T15:26:06.883Z,6.13
2018-07-06T15:28:38.440Z,6.03
2018-07-06T15:31:09.488Z,5.77
2018-07-06T15:33:41.291Z,5.70
2018-07-06T15:36:12.274Z,5.80
2018-07-06T15:38:44.203Z,4.87
2018-07-06T15:41:16.564Z,6.30
2018-07-06T15:43:48.383Z,6.10
2018-07-06T15:46:19.417Z,6.53
2018-07-06T15:48:51.449Z,6.10
2018-07-06T17:52:10.133Z,6.57
